ROMMA est une association bénévole à but non lucratif. Votre soutien est indispensable : ADHERER à ROMMA ou FAIRE un DON

Chindrieux - (73, Savoie)

Chautagne (260 m)   Longitude: 05°50' E   Latitude: 45°49' N Station partenaire n°74
 

Détail journalier du     <<     >>

Température Precipitation Humidité Pression Vent Dir Rafale Dir. rafale Ensol.
Heure (°C) (mm) (%) (hPa) (km/h) (km/h) (min)
01:00 6.409310212NO10NO0
02:00 6.009410211NO8NO0
03:00 5.809410201NO5NO0
04:00 5.209410202NO8NO0
05:00 4.809510201NO6NO0
06:00 4.709510201NO5NO0
07:00 4.809610201NO8NO0
08:00 4.809610211NO6NO0
09:00 4.909610213NO8NO0
10:00 6.509610215NO21NO0
11:00 8.907810219NNO18NNO0
12:00 10.5066102010N19NNE0
13:00 11.1064102011NNO23NNO0
14:00 12.4053101910NNO29NO0
15:00 13.4052101910NNO29NO0
16:00 13.105310188ENE26ENE0
17:00 13.805210188N27NO0
18:00 13.405310187N19N0
19:00 13.505310187NNO16NNO0
20:00 13.205310186N16NE10
21:00 11.705910185NNE16NO10
22:00 11.205910195NNE13N0
23:00 11.005810197N23NNE0
minuit 10.7060101810NNO26N0

Graphique du 29-04-2019

 

Serveur OMMA